sensor_id;sensor_type;location;lat;lon;timestamp;P1;durP1;ratioP1;P2;durP2;ratioP2
30874;SDS011;17581;43.222;27.924;2024-01-15T00:02:16;21.73;;;13.52;;
30874;SDS011;17581;43.222;27.924;2024-01-15T00:04:42;20.65;;;13.05;;
30874;SDS011;17581;43.222;27.924;2024-01-15T00:07:08;20.67;;;13.07;;
30874;SDS011;17581;43.222;27.924;2024-01-15T00:09:34;20.70;;;13.90;;
30874;SDS011;17581;43.222;27.924;2024-01-15T00:12:00;23.25;;;14.93;;
30874;SDS011;17581;43.222;27.924;2024-01-15T00:14:27;27.73;;;15.70;;
30874;SDS011;17581;43.222;27.924;2024-01-15T00:16:53;25.20;;;15.30;;
30874;SDS011;17581;43.222;27.924;2024-01-15T00:19:20;24.05;;;14.95;;
30874;SDS011;17581;43.222;27.924;2024-01-15T00:21:46;28.73;;;16.00;;
30874;SDS011;17581;43.222;27.924;2024-01-15T00:24:12;29.17;;;16.08;;
30874;SDS011;17581;43.222;27.924;2024-01-15T00:26:38;24.95;;;15.85;;
30874;SDS011;17581;43.222;27.924;2024-01-15T00:29:03;25.85;;;15.88;;
30874;SDS011;17581;43.222;27.924;2024-01-15T00:31:29;25.85;;;15.45;;
30874;SDS011;17581;43.222;27.924;2024-01-15T00:33:55;21.58;;;14.38;;
30874;SDS011;17581;43.222;27.924;2024-01-15T00:36:21;23.88;;;13.25;;
30874;SDS011;17581;43.222;27.924;2024-01-15T00:38:46;32.83;;;15.05;;
30874;SDS011;17581;43.222;27.924;2024-01-15T00:41:12;28.45;;;15.27;;
30874;SDS011;17581;43.222;27.924;2024-01-15T00:43:38;31.85;;;14.50;;
30874;SDS011;17581;43.222;27.924;2024-01-15T00:46:04;18.40;;;11.98;;
30874;SDS011;17581;43.222;27.924;2024-01-15T00:48:30;22.98;;;13.20;;
30874;SDS011;17581;43.222;27.924;2024-01-15T00:50:56;20.77;;;11.32;;
30874;SDS011;17581;43.222;27.924;2024-01-15T00:53:21;20.27;;;12.18;;
30874;SDS011;17581;43.222;27.924;2024-01-15T00:55:47;25.73;;;12.48;;
30874;SDS011;17581;43.222;27.924;2024-01-15T00:58:13;18.00;;;11.80;;
30874;SDS011;17581;43.222;27.924;2024-01-15T01:00:39;14.32;;;10.10;;
30874;SDS011;17581;43.222;27.924;2024-01-15T01:03:04;22.65;;;12.48;;
30874;SDS011;17581;43.222;27.924;2024-01-15T01:05:30;15.77;;;10.45;;
30874;SDS011;17581;43.222;27.924;2024-01-15T01:07:55;16.67;;;10.73;;
30874;SDS011;17581;43.222;27.924;2024-01-15T01:10:21;17.85;;;10.15;;
30874;SDS011;17581;43.222;27.924;2024-01-15T01:12:47;24.25;;;11.93;;
30874;SDS011;17581;43.222;27.924;2024-01-15T01:15:12;20.90;;;11.93;;
30874;SDS011;17581;43.222;27.924;2024-01-15T01:17:38;20.92;;;11.82;;
30874;SDS011;17581;43.222;27.924;2024-01-15T01:20:03;24.02;;;16.38;;
30874;SDS011;17581;43.222;27.924;2024-01-15T01:22:31;25.92;;;13.05;;
30874;SDS011;17581;43.222;27.924;2024-01-15T01:24:56;23.20;;;11.38;;
30874;SDS011;17581;43.222;27.924;2024-01-15T01:27:22;19.17;;;11.63;;
30874;SDS011;17581;43.222;27.924;2024-01-15T01:29:47;16.55;;;10.63;;
30874;SDS011;17581;43.222;27.924;2024-01-15T01:32:13;20.63;;;11.77;;
30874;SDS011;17581;43.222;27.924;2024-01-15T01:34:41;23.90;;;11.10;;
30874;SDS011;17581;43.222;27.924;2024-01-15T01:37:07;25.00;;;11.95;;
30874;SDS011;17581;43.222;27.924;2024-01-15T01:39:33;23.25;;;11.75;;
30874;SDS011;17581;43.222;27.924;2024-01-15T01:41:59;22.35;;;11.82;;
30874;SDS011;17581;43.222;27.924;2024-01-15T01:44:24;21.13;;;11.57;;
30874;SDS011;17581;43.222;27.924;2024-01-15T01:46:50;19.02;;;11.70;;
30874;SDS011;17581;43.222;27.924;2024-01-15T01:49:15;20.92;;;11.50;;
30874;SDS011;17581;43.222;27.924;2024-01-15T01:51:41;26.70;;;13.23;;
30874;SDS011;17581;43.222;27.924;2024-01-15T01:54:07;36.00;;;11.52;;
30874;SDS011;17581;43.222;27.924;2024-01-15T01:56:34;36.92;;;11.85;;
30874;SDS011;17581;43.222;27.924;2024-01-15T01:59:01;24.30;;;12.57;;
30874;SDS011;17581;43.222;27.924;2024-01-15T02:01:28;21.10;;;12.45;;
30874;SDS011;17581;43.222;27.924;2024-01-15T02:03:54;26.40;;;12.52;;
30874;SDS011;17581;43.222;27.924;2024-01-15T02:06:22;29.38;;;14.73;;
30874;SDS011;17581;43.222;27.924;2024-01-15T02:08:48;24.80;;;13.15;;
30874;SDS011;17581;43.222;27.924;2024-01-15T02:11:13;24.50;;;14.07;;
30874;SDS011;17581;43.222;27.924;2024-01-15T02:13:39;25.33;;;13.77;;
30874;SDS011;17581;43.222;27.924;2024-01-15T02:16:05;26.92;;;13.63;;
30874;SDS011;17581;43.222;27.924;2024-01-15T02:18:39;30.33;;;14.18;;
30874;SDS011;17581;43.222;27.924;2024-01-15T02:21:08;25.27;;;13.05;;
30874;SDS011;17581;43.222;27.924;2024-01-15T02:23:34;27.45;;;13.55;;
30874;SDS011;17581;43.222;27.924;2024-01-15T02:26:00;25.10;;;12.23;;
30874;SDS011;17581;43.222;27.924;2024-01-15T02:28:26;29.80;;;13.20;;
30874;SDS011;17581;43.222;27.924;2024-01-15T02:30:52;21.30;;;11.50;;
30874;SDS011;17581;43.222;27.924;2024-01-15T02:33:17;30.85;;;13.65;;
30874;SDS011;17581;43.222;27.924;2024-01-15T02:35:43;37.92;;;12.77;;
30874;SDS011;17581;43.222;27.924;2024-01-15T02:38:08;27.88;;;13.05;;
30874;SDS011;17581;43.222;27.924;2024-01-15T02:40:34;25.10;;;13.73;;
30874;SDS011;17581;43.222;27.924;2024-01-15T02:43:00;44.67;;;14.95;;
30874;SDS011;17581;43.222;27.924;2024-01-15T02:45:26;28.27;;;15.40;;
30874;SDS011;17581;43.222;27.924;2024-01-15T02:47:52;31.75;;;15.90;;
30874;SDS011;17581;43.222;27.924;2024-01-15T02:50:17;24.90;;;13.07;;
30874;SDS011;17581;43.222;27.924;2024-01-15T02:52:43;32.78;;;13.55;;
30874;SDS011;17581;43.222;27.924;2024-01-15T02:55:08;26.13;;;13.93;;
30874;SDS011;17581;43.222;27.924;2024-01-15T02:57:34;27.20;;;14.45;;
30874;SDS011;17581;43.222;27.924;2024-01-15T03:00:00;27.70;;;13.98;;
30874;SDS011;17581;43.222;27.924;2024-01-15T03:02:25;30.60;;;15.55;;
30874;SDS011;17581;43.222;27.924;2024-01-15T03:04:51;26.63;;;14.27;;
30874;SDS011;17581;43.222;27.924;2024-01-15T03:07:16;26.13;;;14.85;;
30874;SDS011;17581;43.222;27.924;2024-01-15T03:09:42;30.05;;;18.98;;
30874;SDS011;17581;43.222;27.924;2024-01-15T03:12:08;44.10;;;22.42;;
30874;SDS011;17581;43.222;27.924;2024-01-15T03:14:33;34.85;;;20.40;;
30874;SDS011;17581;43.222;27.924;2024-01-15T03:17:00;43.75;;;23.70;;
30874;SDS011;17581;43.222;27.924;2024-01-15T03:19:26;38.65;;;22.92;;
30874;SDS011;17581;43.222;27.924;2024-01-15T03:21:52;49.30;;;24.00;;
30874;SDS011;17581;43.222;27.924;2024-01-15T03:24:18;49.33;;;24.55;;
30874;SDS011;17581;43.222;27.924;2024-01-15T03:26:43;48.17;;;23.77;;
30874;SDS011;17581;43.222;27.924;2024-01-15T03:29:09;43.47;;;24.65;;
30874;SDS011;17581;43.222;27.924;2024-01-15T03:31:34;51.17;;;21.58;;
30874;SDS011;17581;43.222;27.924;2024-01-15T03:34:00;39.10;;;20.55;;
30874;SDS011;17581;43.222;27.924;2024-01-15T03:36:25;37.22;;;18.58;;
30874;SDS011;17581;43.222;27.924;2024-01-15T03:38:51;81.82;;;21.10;;
30874;SDS011;17581;43.222;27.924;2024-01-15T03:41:17;36.17;;;16.58;;
30874;SDS011;17581;43.222;27.924;2024-01-15T03:43:42;46.83;;;19.48;;
30874;SDS011;17581;43.222;27.924;2024-01-15T03:46:08;45.70;;;17.80;;
30874;SDS011;17581;43.222;27.924;2024-01-15T03:48:33;25.92;;;16.20;;
30874;SDS011;17581;43.222;27.924;2024-01-15T03:50:59;45.60;;;17.67;;
30874;SDS011;17581;43.222;27.924;2024-01-15T03:53:24;33.45;;;15.63;;
30874;SDS011;17581;43.222;27.924;2024-01-15T03:55:50;28.92;;;14.65;;
30874;SDS011;17581;43.222;27.924;2024-01-15T03:58:15;49.75;;;16.35;;
30874;SDS011;17581;43.222;27.924;2024-01-15T04:00:42;27.08;;;15.60;;
30874;SDS011;17581;43.222;27.924;2024-01-15T04:03:07;30.73;;;16.02;;
30874;SDS011;17581;43.222;27.924;2024-01-15T04:05:33;28.42;;;15.40;;
30874;SDS011;17581;43.222;27.924;2024-01-15T04:07:59;26.40;;;14.80;;
30874;SDS011;17581;43.222;27.924;2024-01-15T04:10:24;27.73;;;15.13;;
30874;SDS011;17581;43.222;27.924;2024-01-15T04:12:50;34.70;;;15.38;;
30874;SDS011;17581;43.222;27.924;2024-01-15T04:15:16;41.85;;;15.55;;
30874;SDS011;17581;43.222;27.924;2024-01-15T04:17:41;32.85;;;15.70;;
30874;SDS011;17581;43.222;27.924;2024-01-15T04:20:07;34.35;;;15.35;;
30874;SDS011;17581;43.222;27.924;2024-01-15T04:22:33;34.45;;;15.02;;
30874;SDS011;17581;43.222;27.924;2024-01-15T04:25:00;32.63;;;15.07;;
30874;SDS011;17581;43.222;27.924;2024-01-15T04:27:28;23.58;;;14.48;;
30874;SDS011;17581;43.222;27.924;2024-01-15T04:29:54;25.05;;;15.57;;
30874;SDS011;17581;43.222;27.924;2024-01-15T04:32:19;53.38;;;18.02;;
30874;SDS011;17581;43.222;27.924;2024-01-15T04:34:45;62.90;;;16.35;;
30874;SDS011;17581;43.222;27.924;2024-01-15T04:37:10;47.67;;;15.18;;
30874;SDS011;17581;43.222;27.924;2024-01-15T04:39:36;36.35;;;15.10;;
30874;SDS011;17581;43.222;27.924;2024-01-15T04:42:02;41.33;;;16.58;;
30874;SDS011;17581;43.222;27.924;2024-01-15T04:44:28;31.88;;;15.85;;
30874;SDS011;17581;43.222;27.924;2024-01-15T04:46:53;31.90;;;16.77;;
30874;SDS011;17581;43.222;27.924;2024-01-15T04:49:19;42.80;;;16.60;;
30874;SDS011;17581;43.222;27.924;2024-01-15T04:51:44;39.58;;;16.98;;
30874;SDS011;17581;43.222;27.924;2024-01-15T04:54:10;42.53;;;16.25;;
30874;SDS011;17581;43.222;27.924;2024-01-15T04:56:36;46.90;;;16.83;;
30874;SDS011;17581;43.222;27.924;2024-01-15T04:59:02;109.45;;;22.58;;
30874;SDS011;17581;43.222;27.924;2024-01-15T05:01:31;72.68;;;17.55;;
30874;SDS011;17581;43.222;27.924;2024-01-15T05:03:57;52.90;;;17.63;;
30874;SDS011;17581;43.222;27.924;2024-01-15T05:06:23;46.83;;;15.35;;
30874;SDS011;17581;43.222;27.924;2024-01-15T05:08:48;30.02;;;15.75;;
30874;SDS011;17581;43.222;27.924;2024-01-15T05:11:14;42.45;;;14.57;;
30874;SDS011;17581;43.222;27.924;2024-01-15T05:13:40;52.35;;;17.23;;
30874;SDS011;17581;43.222;27.924;2024-01-15T05:16:05;57.00;;;16.77;;
30874;SDS011;17581;43.222;27.924;2024-01-15T05:18:33;36.60;;;16.20;;
30874;SDS011;17581;43.222;27.924;2024-01-15T05:20:58;42.45;;;17.77;;
30874;SDS011;17581;43.222;27.924;2024-01-15T05:23:24;78.53;;;20.75;;
30874;SDS011;17581;43.222;27.924;2024-01-15T05:25:50;40.85;;;17.75;;
30874;SDS011;17581;43.222;27.924;2024-01-15T05:28:15;60.35;;;19.27;;
30874;SDS011;17581;43.222;27.924;2024-01-15T05:30:41;45.15;;;17.50;;
30874;SDS011;17581;43.222;27.924;2024-01-15T05:33:06;58.45;;;19.88;;
30874;SDS011;17581;43.222;27.924;2024-01-15T05:35:32;37.50;;;17.63;;
30874;SDS011;17581;43.222;27.924;2024-01-15T05:37:58;59.45;;;17.80;;
30874;SDS011;17581;43.222;27.924;2024-01-15T05:40:24;44.58;;;18.77;;
30874;SDS011;17581;43.222;27.924;2024-01-15T05:42:49;65.15;;;19.73;;
30874;SDS011;17581;43.222;27.924;2024-01-15T05:45:15;80.90;;;20.45;;
30874;SDS011;17581;43.222;27.924;2024-01-15T05:47:41;113.63;;;24.50;;
30874;SDS011;17581;43.222;27.924;2024-01-15T05:50:06;87.82;;;29.15;;
30874;SDS011;17581;43.222;27.924;2024-01-15T05:52:32;120.97;;;27.05;;
30874;SDS011;17581;43.222;27.924;2024-01-15T05:54:57;108.57;;;25.48;;
30874;SDS011;17581;43.222;27.924;2024-01-15T05:57:23;98.95;;;32.97;;
30874;SDS011;17581;43.222;27.924;2024-01-15T05:59:49;153.23;;;40.33;;
30874;SDS011;17581;43.222;27.924;2024-01-15T06:02:15;109.57;;;36.83;;
30874;SDS011;17581;43.222;27.924;2024-01-15T06:04:40;119.25;;;33.38;;
30874;SDS011;17581;43.222;27.924;2024-01-15T06:07:06;73.93;;;26.05;;
30874;SDS011;17581;43.222;27.924;2024-01-15T06:09:31;100.45;;;31.35;;
30874;SDS011;17581;43.222;27.924;2024-01-15T06:11:57;84.43;;;30.25;;
30874;SDS011;17581;43.222;27.924;2024-01-15T06:14:22;102.07;;;29.45;;
30874;SDS011;17581;43.222;27.924;2024-01-15T06:16:48;149.35;;;34.88;;
30874;SDS011;17581;43.222;27.924;2024-01-15T06:19:14;104.72;;;31.48;;
30874;SDS011;17581;43.222;27.924;2024-01-15T06:21:40;121.00;;;34.63;;
30874;SDS011;17581;43.222;27.924;2024-01-15T06:24:05;156.25;;;39.33;;
30874;SDS011;17581;43.222;27.924;2024-01-15T06:26:31;148.13;;;37.17;;
30874;SDS011;17581;43.222;27.924;2024-01-15T06:28:56;106.85;;;37.10;;
30874;SDS011;17581;43.222;27.924;2024-01-15T06:31:22;91.60;;;33.13;;
30874;SDS011;17581;43.222;27.924;2024-01-15T06:33:47;87.20;;;28.05;;
30874;SDS011;17581;43.222;27.924;2024-01-15T06:36:14;96.45;;;29.25;;
30874;SDS011;17581;43.222;27.924;2024-01-15T06:38:41;53.38;;;20.70;;
30874;SDS011;17581;43.222;27.924;2024-01-15T06:41:08;41.58;;;21.38;;
30874;SDS011;17581;43.222;27.924;2024-01-15T06:43:33;66.03;;;21.10;;
30874;SDS011;17581;43.222;27.924;2024-01-15T06:45:59;77.45;;;27.13;;
30874;SDS011;17581;43.222;27.924;2024-01-15T06:48:24;58.38;;;24.67;;
30874;SDS011;17581;43.222;27.924;2024-01-15T06:50:50;63.05;;;23.65;;
30874;SDS011;17581;43.222;27.924;2024-01-15T06:53:16;74.07;;;24.33;;
30874;SDS011;17581;43.222;27.924;2024-01-15T06:55:41;50.92;;;20.88;;
30874;SDS011;17581;43.222;27.924;2024-01-15T06:58:06;65.50;;;23.15;;
30874;SDS011;17581;43.222;27.924;2024-01-15T07:00:32;43.28;;;17.33;;
30874;SDS011;17581;43.222;27.924;2024-01-15T07:02:58;63.13;;;18.75;;
30874;SDS011;17581;43.222;27.924;2024-01-15T07:05:23;70.47;;;19.58;;
30874;SDS011;17581;43.222;27.924;2024-01-15T07:07:49;49.85;;;16.67;;
30874;SDS011;17581;43.222;27.924;2024-01-15T07:10:15;39.25;;;14.90;;
30874;SDS011;17581;43.222;27.924;2024-01-15T07:12:44;55.95;;;17.90;;
30874;SDS011;17581;43.222;27.924;2024-01-15T07:15:09;32.95;;;16.27;;
30874;SDS011;17581;43.222;27.924;2024-01-15T07:17:35;57.50;;;17.65;;
30874;SDS011;17581;43.222;27.924;2024-01-15T07:20:04;28.30;;;14.30;;
30874;SDS011;17581;43.222;27.924;2024-01-15T07:22:32;39.22;;;16.38;;
30874;SDS011;17581;43.222;27.924;2024-01-15T07:24:58;62.33;;;27.85;;
30874;SDS011;17581;43.222;27.924;2024-01-15T07:27:24;84.22;;;34.10;;
30874;SDS011;17581;43.222;27.924;2024-01-15T07:29:49;61.63;;;27.63;;
30874;SDS011;17581;43.222;27.924;2024-01-15T07:32:15;52.08;;;27.33;;
30874;SDS011;17581;43.222;27.924;2024-01-15T07:34:41;123.50;;;40.22;;
30874;SDS011;17581;43.222;27.924;2024-01-15T07:37:06;146.50;;;48.80;;
30874;SDS011;17581;43.222;27.924;2024-01-15T07:39:32;112.28;;;43.75;;
30874;SDS011;17581;43.222;27.924;2024-01-15T07:41:58;208.27;;;50.20;;
30874;SDS011;17581;43.222;27.924;2024-01-15T07:44:23;139.32;;;46.45;;
30874;SDS011;17581;43.222;27.924;2024-01-15T07:46:49;132.20;;;39.05;;
30874;SDS011;17581;43.222;27.924;2024-01-15T07:49:14;116.45;;;37.90;;
30874;SDS011;17581;43.222;27.924;2024-01-15T07:51:41;154.05;;;52.80;;
30874;SDS011;17581;43.222;27.924;2024-01-15T07:54:08;142.45;;;48.50;;
30874;SDS011;17581;43.222;27.924;2024-01-15T07:56:52;127.25;;;46.50;;
30874;SDS011;17581;43.222;27.924;2024-01-15T07:59:18;127.43;;;47.95;;
30874;SDS011;17581;43.222;27.924;2024-01-15T08:01:44;148.35;;;50.28;;
30874;SDS011;17581;43.222;27.924;2024-01-15T08:04:09;136.35;;;46.40;;
30874;SDS011;17581;43.222;27.924;2024-01-15T08:06:37;115.80;;;47.30;;
30874;SDS011;17581;43.222;27.924;2024-01-15T08:09:03;128.18;;;46.88;;
30874;SDS011;17581;43.222;27.924;2024-01-15T08:11:29;152.68;;;48.60;;
30874;SDS011;17581;43.222;27.924;2024-01-15T08:13:55;128.27;;;44.15;;
30874;SDS011;17581;43.222;27.924;2024-01-15T08:16:21;76.88;;;27.98;;
30874;SDS011;17581;43.222;27.924;2024-01-15T08:18:46;87.93;;;32.22;;
30874;SDS011;17581;43.222;27.924;2024-01-15T08:21:12;99.32;;;41.20;;
30874;SDS011;17581;43.222;27.924;2024-01-15T08:23:38;155.98;;;56.40;;
30874;SDS011;17581;43.222;27.924;2024-01-15T08:26:04;205.93;;;60.13;;
30874;SDS011;17581;43.222;27.924;2024-01-15T08:28:29;162.38;;;60.53;;
30874;SDS011;17581;43.222;27.924;2024-01-15T08:30:55;160.60;;;58.28;;
30874;SDS011;17581;43.222;27.924;2024-01-15T08:33:21;136.27;;;51.63;;
30874;SDS011;17581;43.222;27.924;2024-01-15T08:35:47;125.65;;;51.70;;
30874;SDS011;17581;43.222;27.924;2024-01-15T08:38:13;127.60;;;49.95;;
30874;SDS011;17581;43.222;27.924;2024-01-15T08:40:38;125.97;;;47.22;;
30874;SDS011;17581;43.222;27.924;2024-01-15T08:43:04;148.80;;;55.15;;
30874;SDS011;17581;43.222;27.924;2024-01-15T08:45:31;127.90;;;51.85;;
30874;SDS011;17581;43.222;27.924;2024-01-15T08:47:57;84.70;;;33.72;;
30874;SDS011;17581;43.222;27.924;2024-01-15T08:50:23;65.05;;;25.58;;
30874;SDS011;17581;43.222;27.924;2024-01-15T08:52:48;77.57;;;27.30;;
30874;SDS011;17581;43.222;27.924;2024-01-15T08:55:14;57.42;;;25.10;;
30874;SDS011;17581;43.222;27.924;2024-01-15T08:57:39;47.88;;;19.50;;
30874;SDS011;17581;43.222;27.924;2024-01-15T09:00:05;59.17;;;23.20;;
30874;SDS011;17581;43.222;27.924;2024-01-15T09:02:33;46.55;;;16.98;;
30874;SDS011;17581;43.222;27.924;2024-01-15T09:05:00;29.33;;;13.82;;
30874;SDS011;17581;43.222;27.924;2024-01-15T09:07:25;28.23;;;13.93;;
30874;SDS011;17581;43.222;27.924;2024-01-15T09:09:52;47.15;;;17.58;;
30874;SDS011;17581;43.222;27.924;2024-01-15T09:12:18;51.70;;;18.25;;
30874;SDS011;17581;43.222;27.924;2024-01-15T09:14:46;26.20;;;15.35;;
30874;SDS011;17581;43.222;27.924;2024-01-15T09:17:11;41.05;;;17.27;;
30874;SDS011;17581;43.222;27.924;2024-01-15T09:19:37;53.03;;;17.83;;
30874;SDS011;17581;43.222;27.924;2024-01-15T09:22:04;31.40;;;16.48;;
30874;SDS011;17581;43.222;27.924;2024-01-15T09:24:30;37.20;;;17.38;;
30874;SDS011;17581;43.222;27.924;2024-01-15T09:26:56;44.05;;;19.77;;
30874;SDS011;17581;43.222;27.924;2024-01-15T09:29:21;47.63;;;18.20;;
30874;SDS011;17581;43.222;27.924;2024-01-15T09:31:48;51.67;;;19.50;;
30874;SDS011;17581;43.222;27.924;2024-01-15T09:34:15;28.70;;;15.43;;
30874;SDS011;17581;43.222;27.924;2024-01-15T09:36:41;43.53;;;17.73;;
30874;SDS011;17581;43.222;27.924;2024-01-15T09:39:07;33.25;;;16.02;;
30874;SDS011;17581;43.222;27.924;2024-01-15T09:41:37;27.05;;;15.20;;
30874;SDS011;17581;43.222;27.924;2024-01-15T09:44:03;31.92;;;15.52;;
30874;SDS011;17581;43.222;27.924;2024-01-15T09:46:30;28.13;;;17.13;;
30874;SDS011;17581;43.222;27.924;2024-01-15T09:48:57;33.22;;;17.08;;
30874;SDS011;17581;43.222;27.924;2024-01-15T09:51:24;34.10;;;17.55;;
30874;SDS011;17581;43.222;27.924;2024-01-15T09:53:50;31.52;;;17.55;;
30874;SDS011;17581;43.222;27.924;2024-01-15T09:56:16;32.95;;;16.73;;
30874;SDS011;17581;43.222;27.924;2024-01-15T09:58:42;48.42;;;20.25;;
30874;SDS011;17581;43.222;27.924;2024-01-15T10:01:08;27.77;;;17.52;;
30874;SDS011;17581;43.222;27.924;2024-01-15T10:03:34;49.80;;;20.42;;
30874;SDS011;17581;43.222;27.924;2024-01-15T10:06:00;35.35;;;18.50;;
30874;SDS011;17581;43.222;27.924;2024-01-15T10:08:27;36.30;;;19.02;;
30874;SDS011;17581;43.222;27.924;2024-01-15T10:10:53;32.47;;;18.85;;
30874;SDS011;17581;43.222;27.924;2024-01-15T10:13:18;42.60;;;18.05;;
30874;SDS011;17581;43.222;27.924;2024-01-15T10:15:46;35.88;;;19.15;;
30874;SDS011;17581;43.222;27.924;2024-01-15T10:18:15;35.85;;;17.95;;
30874;SDS011;17581;43.222;27.924;2024-01-15T10:20:40;36.75;;;18.80;;
30874;SDS011;17581;43.222;27.924;2024-01-15T10:23:06;42.05;;;17.67;;
30874;SDS011;17581;43.222;27.924;2024-01-15T10:25:31;39.70;;;17.52;;
30874;SDS011;17581;43.222;27.924;2024-01-15T10:28:00;51.60;;;18.35;;
30874;SDS011;17581;43.222;27.924;2024-01-15T10:30:27;36.63;;;17.38;;
30874;SDS011;17581;43.222;27.924;2024-01-15T10:33:00;31.13;;;16.10;;
30874;SDS011;17581;43.222;27.924;2024-01-15T10:35:27;42.35;;;18.33;;
30874;SDS011;17581;43.222;27.924;2024-01-15T10:37:54;29.17;;;16.08;;
30874;SDS011;17581;43.222;27.924;2024-01-15T10:40:19;33.78;;;15.85;;
30874;SDS011;17581;43.222;27.924;2024-01-15T10:42:45;43.05;;;17.77;;
30874;SDS011;17581;43.222;27.924;2024-01-15T10:45:12;30.20;;;15.18;;
30874;SDS011;17581;43.222;27.924;2024-01-15T10:47:42;42.22;;;15.73;;
30874;SDS011;17581;43.222;27.924;2024-01-15T10:50:08;28.63;;;12.75;;
30874;SDS011;17581;43.222;27.924;2024-01-15T10:52:38;20.30;;;13.85;;
30874;SDS011;17581;43.222;27.924;2024-01-15T10:55:10;25.58;;;12.80;;
30874;SDS011;17581;43.222;27.924;2024-01-15T10:57:37;28.98;;;13.35;;
30874;SDS011;17581;43.222;27.924;2024-01-15T11:00:03;27.90;;;13.88;;
30874;SDS011;17581;43.222;27.924;2024-01-15T11:02:35;16.83;;;11.93;;
30874;SDS011;17581;43.222;27.924;2024-01-15T11:05:02;48.87;;;13.27;;
30874;SDS011;17581;43.222;27.924;2024-01-15T11:07:29;25.05;;;12.65;;
30874;SDS011;17581;43.222;27.924;2024-01-15T11:09:56;20.73;;;12.25;;
30874;SDS011;17581;43.222;27.924;2024-01-15T11:12:24;24.90;;;13.32;;
30874;SDS011;17581;43.222;27.924;2024-01-15T11:14:49;23.50;;;12.85;;
30874;SDS011;17581;43.222;27.924;2024-01-15T11:17:16;21.05;;;11.40;;
30874;SDS011;17581;43.222;27.924;2024-01-15T11:19:43;29.65;;;12.82;;
30874;SDS011;17581;43.222;27.924;2024-01-15T11:24:56;17.17;;;11.80;;
30874;SDS011;17581;43.222;27.924;2024-01-15T11:27:45;25.30;;;13.95;;
30874;SDS011;17581;43.222;27.924;2024-01-15T11:30:12;26.95;;;12.98;;
30874;SDS011;17581;43.222;27.924;2024-01-15T11:32:39;20.42;;;12.23;;
30874;SDS011;17581;43.222;27.924;2024-01-15T11:35:12;23.40;;;12.85;;
30874;SDS011;17581;43.222;27.924;2024-01-15T11:40:20;18.63;;;11.90;;
30874;SDS011;17581;43.222;27.924;2024-01-15T11:42:46;25.95;;;12.45;;
30874;SDS011;17581;43.222;27.924;2024-01-15T11:45:13;32.55;;;13.93;;
30874;SDS011;17581;43.222;27.924;2024-01-15T11:50:43;33.17;;;17.17;;
30874;SDS011;17581;43.222;27.924;2024-01-15T11:56:00;45.08;;;16.02;;
30874;SDS011;17581;43.222;27.924;2024-01-15T11:58:27;30.48;;;15.77;;
30874;SDS011;17581;43.222;27.924;2024-01-15T12:00:53;24.63;;;13.57;;
30874;SDS011;17581;43.222;27.924;2024-01-15T12:03:22;32.92;;;12.30;;
30874;SDS011;17581;43.222;27.924;2024-01-15T12:05:49;23.50;;;11.38;;
30874;SDS011;17581;43.222;27.924;2024-01-15T12:08:20;21.67;;;12.35;;
30874;SDS011;17581;43.222;27.924;2024-01-15T12:10:50;22.20;;;12.05;;
30874;SDS011;17581;43.222;27.924;2024-01-15T12:13:16;18.38;;;11.52;;
30874;SDS011;17581;43.222;27.924;2024-01-15T12:15:43;25.95;;;12.25;;
30874;SDS011;17581;43.222;27.924;2024-01-15T12:18:11;26.95;;;12.32;;
30874;SDS011;17581;43.222;27.924;2024-01-15T12:20:39;21.35;;;11.82;;
30874;SDS011;17581;43.222;27.924;2024-01-15T12:23:05;25.23;;;11.93;;
30874;SDS011;17581;43.222;27.924;2024-01-15T12:25:33;23.13;;;12.45;;
30874;SDS011;17581;43.222;27.924;2024-01-15T12:27:59;27.23;;;13.50;;
30874;SDS011;17581;43.222;27.924;2024-01-15T12:30:26;29.08;;;12.02;;
30874;SDS011;17581;43.222;27.924;2024-01-15T12:32:52;23.20;;;12.45;;
30874;SDS011;17581;43.222;27.924;2024-01-15T12:35:20;33.03;;;13.95;;
30874;SDS011;17581;43.222;27.924;2024-01-15T12:37:45;29.88;;;12.68;;
30874;SDS011;17581;43.222;27.924;2024-01-15T12:40:12;33.22;;;15.15;;
30874;SDS011;17581;43.222;27.924;2024-01-15T12:42:39;24.13;;;13.63;;
30874;SDS011;17581;43.222;27.924;2024-01-15T12:45:05;36.53;;;13.73;;
30874;SDS011;17581;43.222;27.924;2024-01-15T12:47:32;35.17;;;14.60;;
30874;SDS011;17581;43.222;27.924;2024-01-15T12:49:58;39.28;;;13.15;;
30874;SDS011;17581;43.222;27.924;2024-01-15T12:52:27;25.10;;;14.23;;
30874;SDS011;17581;43.222;27.924;2024-01-15T12:54:53;49.72;;;14.68;;
30874;SDS011;17581;43.222;27.924;2024-01-15T12:57:19;33.78;;;13.65;;
30874;SDS011;17581;43.222;27.924;2024-01-15T12:59:44;27.40;;;14.70;;
30874;SDS011;17581;43.222;27.924;2024-01-15T13:02:11;22.45;;;13.73;;
30874;SDS011;17581;43.222;27.924;2024-01-15T13:04:37;25.65;;;13.73;;
30874;SDS011;17581;43.222;27.924;2024-01-15T13:07:05;31.85;;;13.90;;
30874;SDS011;17581;43.222;27.924;2024-01-15T13:09:31;22.17;;;12.43;;
30874;SDS011;17581;43.222;27.924;2024-01-15T13:11:56;26.77;;;13.07;;
30874;SDS011;17581;43.222;27.924;2024-01-15T13:14:22;22.52;;;12.27;;
30874;SDS011;17581;43.222;27.924;2024-01-15T13:16:48;20.40;;;12.70;;
30874;SDS011;17581;43.222;27.924;2024-01-15T13:19:13;22.83;;;12.00;;
30874;SDS011;17581;43.222;27.924;2024-01-15T13:21:42;33.30;;;13.32;;
30874;SDS011;17581;43.222;27.924;2024-01-15T13:24:08;28.38;;;15.05;;
30874;SDS011;17581;43.222;27.924;2024-01-15T13:26:34;26.98;;;15.45;;
30874;SDS011;17581;43.222;27.924;2024-01-15T13:29:03;26.60;;;14.88;;
30874;SDS011;17581;43.222;27.924;2024-01-15T13:31:29;31.15;;;16.30;;
30874;SDS011;17581;43.222;27.924;2024-01-15T13:33:55;36.08;;;17.15;;
30874;SDS011;17581;43.222;27.924;2024-01-15T13:36:21;25.70;;;14.88;;
30874;SDS011;17581;43.222;27.924;2024-01-15T13:38:51;37.03;;;17.52;;
30874;SDS011;17581;43.222;27.924;2024-01-15T13:41:20;31.20;;;16.15;;
30874;SDS011;17581;43.222;27.924;2024-01-15T13:43:53;43.55;;;19.02;;
30874;SDS011;17581;43.222;27.924;2024-01-15T13:46:19;35.67;;;17.00;;
30874;SDS011;17581;43.222;27.924;2024-01-15T13:48:47;52.08;;;17.40;;
30874;SDS011;17581;43.222;27.924;2024-01-15T13:51:12;30.25;;;14.70;;
30874;SDS011;17581;43.222;27.924;2024-01-15T13:53:38;28.13;;;15.50;;
30874;SDS011;17581;43.222;27.924;2024-01-15T13:56:04;41.10;;;16.73;;
30874;SDS011;17581;43.222;27.924;2024-01-15T13:58:31;31.00;;;15.73;;
30874;SDS011;17581;43.222;27.924;2024-01-15T14:00:58;27.05;;;14.88;;
30874;SDS011;17581;43.222;27.924;2024-01-15T14:03:23;33.35;;;16.40;;
30874;SDS011;17581;43.222;27.924;2024-01-15T14:05:50;26.40;;;15.40;;
30874;SDS011;17581;43.222;27.924;2024-01-15T14:08:16;29.05;;;16.20;;
30874;SDS011;17581;43.222;27.924;2024-01-15T14:10:42;40.80;;;17.98;;
30874;SDS011;17581;43.222;27.924;2024-01-15T14:13:08;60.97;;;18.13;;
30874;SDS011;17581;43.222;27.924;2024-01-15T14:15:34;45.70;;;19.48;;